Time;durP1;ratioP1;P1;durP2;ratioP2;P2;SDS_P1;SDS_P2;PMS_P1;PMS_P2;Temp;Humidity;BMP_temperature;BMP_pressure;BME280_temperature;BME280_humidity;BME280_pressure;Samples;Min_cycle;Max_cycle;Signal;HPM_P1;HPM_P2
2021/07/28 00:00:49;;;;;;;5.07;4.00;;;18.30;81.00;;;;;;4976439;28;20027;-77
2021/07/28 00:03:15;;;;;;;5.55;4.60;;;18.20;81.10;;;;;;4976072;28;20482;-77
2021/07/28 00:05:41;;;;;;;6.38;5.38;;;18.30;81.10;;;;;;4975842;28;20015;-77
2021/07/28 00:08:06;;;;;;;7.22;4.72;;;18.20;81.30;;;;;;4975951;28;20355;-76
2021/07/28 00:10:32;;;;;;;6.28;4.20;;;18.20;81.50;;;;;;4975076;28;20358;-77
2021/07/28 00:12:57;;;;;;;8.50;5.93;;;18.10;81.60;;;;;;4976206;28;20023;-77
2021/07/28 00:15:23;;;;;;;7.57;5.90;;;18.10;81.70;;;;;;4976069;28;20031;-76
2021/07/28 00:17:54;;;;;;;6.38;5.13;;;18.00;81.90;;;;;;4975652;28;20470;-76
2021/07/28 00:23:12;;;;;;;7.28;5.85;;;18.00;82.00;;;;;;4974570;28;20536;-76
2021/07/28 00:23:14;;;;;;;7.05;4.93;;;18.00;82.10;;;;;;4975790;28;20085;-77
2021/07/28 00:25:41;;;;;;;6.10;4.88;;;18.00;82.30;;;;;;4974421;28;20035;-76
2021/07/28 00:28:07;;;;;;;7.82;5.63;;;17.90;82.40;;;;;;4975780;28;20030;-76
2021/07/28 00:30:33;;;;;;;5.97;4.82;;;17.90;82.50;;;;;;4975873;28;20031;-76
2021/07/28 00:32:59;;;;;;;6.13;4.72;;;17.90;82.60;;;;;;4975926;28;20023;-76
2021/07/28 00:35:25;;;;;;;5.03;4.30;;;17.90;82.60;;;;;;4975503;28;20027;-76
2021/07/28 00:37:51;;;;;;;5.72;4.60;;;17.90;82.60;;;;;;4974900;28;20034;-76
2021/07/28 00:40:17;;;;;;;5.22;4.30;;;17.90;82.60;;;;;;4975420;28;20504;-76
2021/07/28 00:42:43;;;;;;;5.38;4.38;;;17.90;82.50;;;;;;4975836;28;20333;-76
2021/07/28 00:45:09;;;;;;;7.35;5.15;;;17.90;82.30;;;;;;4975721;28;20030;-76
2021/07/28 00:47:35;;;;;;;6.63;5.22;;;17.90;82.40;;;;;;4974886;28;20531;-76
2021/07/28 00:50:02;;;;;;;8.13;5.30;;;17.90;82.50;;;;;;4975583;28;20110;-76
2021/07/28 00:52:29;;;;;;;5.78;4.45;;;17.90;82.50;;;;;;4975193;28;20019;-76
2021/07/28 00:54:55;;;;;;;8.80;6.47;;;17.80;82.40;;;;;;4973950;28;20075;-77
2021/07/28 00:57:21;;;;;;;6.32;4.50;;;17.80;82.70;;;;;;4974744;28;20031;-76
2021/07/28 00:59:46;;;;;;;7.65;5.03;;;17.80;82.80;;;;;;4975018;28;20502;-76
2021/07/28 01:02:12;;;;;;;6.28;4.88;;;17.80;82.80;;;;;;4975460;28;20054;-77
2021/07/28 01:04:38;;;;;;;8.45;5.60;;;17.70;82.90;;;;;;4975182;28;20030;-76
2021/07/28 01:07:03;;;;;;;8.18;6.60;;;17.70;82.90;;;;;;4974699;28;20026;-76
2021/07/28 01:09:30;;;;;;;8.48;7.28;;;17.70;83.10;;;;;;4974858;28;20034;-76
2021/07/28 01:12:02;;;;;;;7.40;6.13;;;17.60;83.30;;;;;;4974847;28;20482;-77
2021/07/28 01:14:27;;;;;;;9.18;6.65;;;17.60;83.40;;;;;;4975077;28;20026;-76
2021/07/28 01:16:55;;;;;;;6.82;5.32;;;17.60;83.50;;;;;;4974464;28;20101;-77
2021/07/28 01:19:26;;;;;;;7.38;5.85;;;17.60;83.50;;;;;;4975053;28;20042;-76
2021/07/28 01:21:52;;;;;;;7.05;5.10;;;17.60;83.60;;;;;;4974700;28;20481;-76
2021/07/28 01:24:18;;;;;;;6.55;5.38;;;17.60;83.50;;;;;;4974643;28;20031;-76
2021/07/28 01:26:44;;;;;;;8.02;6.72;;;17.60;83.60;;;;;;4974178;28;20026;-76
2021/07/28 01:29:11;;;;;;;7.10;5.30;;;17.50;83.70;;;;;;4974617;28;20109;-76
2021/07/28 01:31:39;;;;;;;8.85;6.05;;;17.60;83.70;;;;;;4974932;28;20054;-77
2021/07/28 01:34:06;;;;;;;6.63;5.47;;;17.60;83.80;;;;;;4973502;28;20492;-77
2021/07/28 01:36:32;;;;;;;6.22;4.70;;;17.50;83.80;;;;;;4973859;28;20027;-77
2021/07/28 01:38:58;;;;;;;6.65;5.20;;;17.60;83.70;;;;;;4974404;28;20449;-76
2021/07/28 01:41:24;;;;;;;8.05;6.13;;;17.50;83.70;;;;;;4974321;28;20030;-76
2021/07/28 01:43:49;;;;;;;10.48;7.43;;;17.50;83.80;;;;;;4974614;28;20049;-77
2021/07/28 01:46:15;;;;;;;11.35;7.75;;;17.50;84.00;;;;;;4974343;28;20011;-76
2021/07/28 01:48:41;;;;;;;8.38;6.55;;;17.50;84.30;;;;;;4974516;28;20022;-76
2021/07/28 01:51:06;;;;;;;9.25;7.50;;;17.40;84.40;;;;;;4974149;28;20102;-76
2021/07/28 01:53:32;;;;;;;9.77;6.95;;;17.40;84.50;;;;;;4974372;28;20126;-76
2021/07/28 01:55:59;;;;;;;7.15;5.63;;;17.40;84.60;;;;;;4973683;28;20130;-76
2021/07/28 01:58:24;;;;;;;6.88;5.63;;;17.40;84.60;;;;;;4974207;28;20042;-77
2021/07/28 02:00:50;;;;;;;7.97;6.20;;;17.40;85.20;;;;;;4974051;28;20382;-76
2021/07/28 02:03:16;;;;;;;8.93;6.90;;;17.40;84.50;;;;;;4974294;28;20039;-76
2021/07/28 02:05:43;;;;;;;7.82;5.72;;;17.40;84.60;;;;;;4973789;28;20023;-77
2021/07/28 02:08:11;;;;;;;8.25;6.43;;;17.40;84.60;;;;;;4973767;28;20038;-76
2021/07/28 02:10:39;;;;;;;8.63;7.00;;;17.40;84.60;;;;;;4973707;28;20045;-76
2021/07/28 02:13:06;;;;;;;8.10;6.72;;;17.40;84.80;;;;;;4973957;28;20068;-76
2021/07/28 02:15:33;;;;;;;8.15;6.47;;;17.30;84.80;;;;;;4973310;28;20027;-76
2021/07/28 02:17:59;;;;;;;8.07;5.50;;;17.30;84.90;;;;;;4973241;28;20034;-76
2021/07/28 02:20:26;;;;;;;8.95;6.75;;;17.40;84.80;;;;;;4972298;28;20046;-76
2021/07/28 02:22:52;;;;;;;6.25;5.00;;;17.40;84.90;;;;;;4973721;28;20019;-77
2021/07/28 02:25:17;;;;;;;7.10;5.68;;;17.40;84.80;;;;;;4973847;28;20038;-76
2021/07/28 02:27:44;;;;;;;9.18;6.07;;;17.40;84.60;;;;;;4973248;28;20022;-76
2021/07/28 02:30:11;;;;;;;6.95;4.90;;;17.50;84.60;;;;;;4973486;28;20023;-77
2021/07/28 02:32:37;;;;;;;5.63;4.68;;;17.50;84.60;;;;;;4973736;28;20033;-76
2021/07/28 02:35:04;;;;;;;7.03;5.05;;;17.60;84.40;;;;;;4973432;28;20054;-77
2021/07/28 02:37:29;;;;;;;8.30;5.20;;;17.60;84.20;;;;;;4972709;28;20121;-76
2021/07/28 02:39:55;;;;;;;8.00;5.93;;;17.70;84.10;;;;;;4973385;28;20118;-76
2021/07/28 02:42:20;;;;;;;4.18;3.17;;;17.70;84.20;;;;;;4973313;28;20544;-77
2021/07/28 02:44:46;;;;;;;9.05;6.10;;;17.70;84.10;;;;;;4972056;28;20174;-76
2021/07/28 02:47:12;;;;;;;6.68;4.78;;;17.70;84.30;;;;;;4972433;28;20358;-76
2021/07/28 02:49:38;;;;;;;4.05;3.30;;;17.70;84.30;;;;;;4972027;28;20034;-76
2021/07/28 02:52:04;;;;;;;6.43;5.10;;;17.70;84.10;;;;;;4973378;28;20115;-76
2021/07/28 02:54:30;;;;;;;6.10;4.25;;;17.70;84.10;;;;;;4972979;28;20066;-76
2021/07/28 02:56:56;;;;;;;4.30;3.33;;;17.70;84.10;;;;;;4972523;28;20058;-76
2021/07/28 02:59:21;;;;;;;6.45;4.57;;;17.70;83.90;;;;;;4972921;28;20523;-76
2021/07/28 03:01:49;;;;;;;7.05;4.47;;;17.80;83.90;;;;;;4973107;28;20094;-76
2021/07/28 03:04:14;;;;;;;4.38;3.58;;;17.80;83.80;;;;;;4972965;28;20056;-76
2021/07/28 03:06:40;;;;;;;6.45;5.20;;;17.80;83.70;;;;;;4972616;28;20023;-76
2021/07/28 03:09:05;;;;;;;7.07;4.47;;;17.90;83.80;;;;;;4973057;28;20029;-76
2021/07/28 03:11:31;;;;;;;5.93;4.30;;;17.80;83.70;;;;;;4972877;28;20035;-77
2021/07/28 03:13:56;;;;;;;8.45;5.68;;;17.80;83.70;;;;;;4972970;28;20034;-76
2021/07/28 03:16:22;;;;;;;6.53;4.32;;;17.80;83.80;;;;;;4972704;28;20046;-76
2021/07/28 03:18:49;;;;;;;10.05;6.60;;;17.80;83.90;;;;;;4972577;28;20039;-77
2021/07/28 03:21:14;;;;;;;6.53;5.03;;;17.70;84.10;;;;;;4972893;28;20109;-76
2021/07/28 03:23:40;;;;;;;9.60;5.43;;;17.70;84.20;;;;;;4973039;28;20062;-76
2021/07/28 03:26:05;;;;;;;6.45;4.75;;;17.70;84.20;;;;;;4972289;28;20031;-77
2021/07/28 03:28:31;;;;;;;5.18;4.10;;;17.70;84.10;;;;;;4971735;28;20027;-76
2021/07/28 03:30:56;;;;;;;6.95;5.40;;;17.70;84.00;;;;;;4972803;28;20030;-76
2021/07/28 03:33:22;;;;;;;3.58;2.80;;;17.80;84.00;;;;;;4972923;28;20027;-76
2021/07/28 03:35:47;;;;;;;7.10;5.32;;;17.80;83.90;;;;;;4972484;28;20351;-77
2021/07/28 03:38:14;;;;;;;8.07;6.53;;;17.80;83.90;;;;;;4972449;28;20062;-76
2021/07/28 03:40:40;;;;;;;4.68;3.88;;;17.70;84.10;;;;;;4972786;28;20042;-76
2021/07/28 03:43:06;;;;;;;8.40;5.57;;;17.70;84.10;;;;;;4972524;28;20052;-76
2021/07/28 03:45:31;;;;;;;7.32;5.47;;;17.70;84.20;;;;;;4972599;28;20031;-76
2021/07/28 03:47:57;;;;;;;7.47;6.28;;;17.70;84.30;;;;;;4972030;28;20030;-76
2021/07/28 03:50:23;;;;;;;6.43;5.28;;;17.70;84.40;;;;;;4972731;28;20078;-76
2021/07/28 03:52:48;;;;;;;7.78;5.00;;;17.70;84.40;;;;;;4972545;28;20065;-76
2021/07/28 03:55:14;;;;;;;7.05;5.50;;;17.70;84.30;;;;;;4972895;28;20026;-76
2021/07/28 03:57:39;;;;;;;8.77;6.28;;;17.70;84.40;;;;;;4972126;28;20066;-76
2021/07/28 04:00:06;;;;;;;7.88;5.15;;;17.70;84.50;;;;;;4972332;28;20042;-76
2021/07/28 04:02:32;;;;;;;8.70;6.63;;;17.60;84.50;;;;;;4972276;28;20026;-77
2021/07/28 04:04:57;;;;;;;6.45;4.57;;;17.60;84.50;;;;;;4972638;28;20045;-76
2021/07/28 04:07:23;;;;;;;6.82;3.97;;;17.60;84.50;;;;;;4972039;28;20305;-76
2021/07/28 04:09:48;;;;;;;6.88;5.47;;;17.70;84.40;;;;;;4972751;28;20462;-76
2021/07/28 04:12:14;;;;;;;5.85;4.28;;;17.70;84.30;;;;;;4972604;28;20035;-76
2021/07/28 04:14:40;;;;;;;7.72;5.35;;;17.70;84.30;;;;;;4971119;28;20494;-76
2021/07/28 04:17:06;;;;;;;5.38;4.45;;;17.70;84.30;;;;;;4972025;28;20038;-76
2021/07/28 04:19:31;;;;;;;9.10;6.40;;;17.70;84.30;;;;;;4972324;28;20120;-77
2021/07/28 04:21:57;;;;;;;8.50;5.85;;;17.70;84.40;;;;;;4972321;28;20054;-77
2021/07/28 04:24:22;;;;;;;5.35;3.97;;;17.60;84.40;;;;;;4971074;28;20030;-77
2021/07/28 04:26:48;;;;;;;5.05;3.90;;;17.60;84.40;;;;;;4971858;28;20023;-76
2021/07/28 04:29:13;;;;;;;7.63;5.50;;;17.70;84.30;;;;;;4972152;28;20030;-76
2021/07/28 04:31:39;;;;;;;6.38;5.20;;;17.60;84.30;;;;;;4972100;28;20121;-76
2021/07/28 04:34:04;;;;;;;6.13;4.80;;;17.60;84.30;;;;;;4972413;28;20126;-76
2021/07/28 04:36:30;;;;;;;8.43;6.65;;;17.70;84.40;;;;;;4971695;28;20051;-76
2021/07/28 04:38:56;;;;;;;6.95;4.70;;;17.60;84.40;;;;;;4971951;28;20031;-76
2021/07/28 04:41:21;;;;;;;6.57;5.30;;;17.60;84.40;;;;;;4975665;28;20070;-76
2021/07/28 04:43:47;;;;;;;6.90;5.28;;;17.70;84.40;;;;;;4975443;28;20051;-76
2021/07/28 04:46:12;;;;;;;6.97;5.80;;;17.70;84.30;;;;;;4975071;28;20034;-76
2021/07/28 04:48:38;;;;;;;6.80;4.43;;;17.70;84.40;;;;;;4975735;28;20109;-76
2021/07/28 04:51:03;;;;;;;6.90;4.80;;;17.70;84.30;;;;;;4975325;28;20094;-76
2021/07/28 04:53:29;;;;;;;6.03;4.93;;;17.70;84.20;;;;;;4975370;28;20429;-76
2021/07/28 04:55:58;;;;;;;6.13;4.68;;;17.80;84.20;;;;;;4974959;28;20417;-76
2021/07/28 04:58:25;;;;;;;6.07;4.32;;;17.80;84.20;;;;;;4975448;28;20030;-76
2021/07/28 05:00:51;;;;;;;6.15;4.70;;;17.80;84.20;;;;;;4975072;28;20113;-76
2021/07/28 05:03:17;;;;;;;9.27;6.72;;;17.90;84.10;;;;;;4975429;28;20470;-76
2021/07/28 05:05:43;;;;;;;6.32;4.93;;;17.80;84.10;;;;;;4974911;28;20023;-76
2021/07/28 05:08:09;;;;;;;6.88;4.72;;;17.80;84.20;;;;;;4974933;28;20029;-76
2021/07/28 05:10:35;;;;;;;6.22;5.07;;;17.80;84.20;;;;;;4975004;28;20030;-76
2021/07/28 05:13:01;;;;;;;7.25;6.05;;;17.80;84.20;;;;;;4975471;28;20015;-76
2021/07/28 05:15:27;;;;;;;5.40;4.50;;;17.80;84.30;;;;;;4974871;28;20027;-76
2021/07/28 05:17:52;;;;;;;7.88;4.85;;;17.80;84.40;;;;;;4974413;28;20390;-76
2021/07/28 05:20:18;;;;;;;5.63;4.05;;;17.80;84.40;;;;;;4974848;28;20066;-76
2021/07/28 05:22:45;;;;;;;7.75;5.40;;;17.90;84.30;;;;;;4974911;28;20031;-76
2021/07/28 05:25:11;;;;;;;7.65;5.47;;;17.90;84.30;;;;;;4975097;28;20394;-76
2021/07/28 05:27:36;;;;;;;8.07;4.85;;;17.90;84.40;;;;;;4974297;28;20486;-76
2021/07/28 05:30:03;;;;;;;7.38;5.70;;;17.90;84.30;;;;;;4974789;28;20038;-76
2021/07/28 05:32:29;;;;;;;9.35;5.63;;;18.00;84.40;;;;;;4974669;28;20042;-76
2021/07/28 05:34:54;;;;;;;7.00;4.85;;;18.00;84.40;;;;;;4974803;28;20117;-76
2021/07/28 05:37:20;;;;;;;8.60;6.20;;;18.00;84.30;;;;;;4973959;28;20023;-76
2021/07/28 05:39:46;;;;;;;8.25;4.95;;;17.90;84.60;;;;;;4974449;28;20042;-76
2021/07/28 05:42:12;;;;;;;8.05;5.68;;;17.90;84.60;;;;;;4974296;28;20556;-76
2021/07/28 05:44:38;;;;;;;8.10;5.68;;;17.90;84.60;;;;;;4974729;28;20058;-76
2021/07/28 05:47:03;;;;;;;7.28;5.55;;;18.00;84.70;;;;;;4974129;28;20046;-76
2021/07/28 05:49:29;;;;;;;9.00;7.40;;;18.00;84.60;;;;;;4974188;28;20053;-76
2021/07/28 05:51:55;;;;;;;8.43;6.43;;;18.00;84.70;;;;;;4973358;28;20031;-76
2021/07/28 05:54:21;;;;;;;7.18;5.78;;;18.00;84.80;;;;;;4974190;28;20037;-76
2021/07/28 05:56:46;;;;;;;10.20;7.47;;;18.00;84.80;;;;;;4973703;28;20430;-76
2021/07/28 05:59:12;;;;;;;9.55;7.25;;;18.00;84.80;;;;;;4973962;28;20042;-76
2021/07/28 06:01:37;;;;;;;9.13;6.70;;;18.00;85.00;;;;;;4974067;28;20023;-76
2021/07/28 06:04:03;;;;;;;9.00;6.85;;;18.00;85.10;;;;;;4974188;28;20402;-76
2021/07/28 06:06:29;;;;;;;8.38;6.15;;;18.00;85.30;;;;;;4973378;28;20019;-76
2021/07/28 06:08:54;;;;;;;11.02;8.55;;;18.00;85.30;;;;;;4973992;28;20018;-76
2021/07/28 06:11:20;;;;;;;7.38;5.50;;;18.00;85.40;;;;;;4973886;28;20018;-76
2021/07/28 06:13:45;;;;;;;8.25;6.40;;;18.00;85.50;;;;;;4973909;28;20027;-76
2021/07/28 06:16:11;;;;;;;7.75;5.72;;;18.10;85.60;;;;;;4973323;28;20115;-76
2021/07/28 06:18:36;;;;;;;12.30;9.20;;;18.10;85.30;;;;;;4973919;28;20019;-76
2021/07/28 06:21:02;;;;;;;11.75;8.50;;;18.20;85.30;;;;;;4973964;28;20359;-76
2021/07/28 06:23:28;;;;;;;8.45;6.63;;;18.20;85.40;;;;;;4973967;28;20066;-76
2021/07/28 06:25:53;;;;;;;11.75;8.63;;;18.20;85.40;;;;;;4973452;28;20023;-76
2021/07/28 06:28:19;;;;;;;10.48;8.60;;;18.20;85.20;;;;;;4973482;28;20034;-77
2021/07/28 06:30:44;;;;;;;10.15;7.68;;;18.30;85.30;;;;;;4973705;28;20154;-76
2021/07/28 06:33:10;;;;;;;9.18;7.65;;;18.30;85.20;;;;;;4972209;28;20034;-76
2021/07/28 06:35:36;;;;;;;10.18;8.30;;;18.30;85.10;;;;;;4973388;28;20088;-76
2021/07/28 06:38:02;;;;;;;9.45;7.63;;;18.40;85.10;;;;;;4972817;28;20512;-76
2021/07/28 06:40:28;;;;;;;12.88;10.65;;;18.40;85.10;;;;;;4973177;28;20121;-76
2021/07/28 06:42:54;;;;;;;7.28;6.03;;;18.40;85.10;;;;;;4973605;28;20267;-76
2021/07/28 06:45:19;;;;;;;11.23;8.57;;;18.50;85.00;;;;;;4973512;28;20062;-77
2021/07/28 06:47:45;;;;;;;9.90;7.50;;;18.60;84.90;;;;;;4972844;28;20031;-77
2021/07/28 06:50:11;;;;;;;8.48;6.97;;;18.70;84.70;;;;;;4973259;28;20045;-76
2021/07/28 06:52:37;;;;;;;9.02;6.75;;;18.70;84.60;;;;;;4971762;28;20044;-77
2021/07/28 06:55:02;;;;;;;11.32;9.25;;;18.80;84.50;;;;;;4973222;28;20026;-77
2021/07/28 06:57:29;;;;;;;9.13;7.63;;;18.80;84.50;;;;;;4972788;28;20478;-76
2021/07/28 06:59:55;;;;;;;10.75;9.13;;;18.80;84.30;;;;;;4973095;28;20031;-76
2021/07/28 07:02:21;;;;;;;10.55;8.77;;;18.80;84.20;;;;;;4972741;28;20105;-76
2021/07/28 07:04:47;;;;;;;8.75;6.95;;;18.80;84.20;;;;;;4973013;28;20110;-76
2021/07/28 07:07:12;;;;;;;7.47;5.93;;;18.80;84.20;;;;;;4972503;28;20019;-76
2021/07/28 07:09:38;;;;;;;13.25;9.90;;;18.80;84.10;;;;;;4973144;28;20031;-76
2021/07/28 07:12:03;;;;;;;7.57;5.93;;;18.90;84.00;;;;;;4972833;28;20045;-76
2021/07/28 07:14:29;;;;;;;10.40;7.57;;;18.90;84.00;;;;;;4973125;28;20034;-76
2021/07/28 07:16:56;;;;;;;8.85;7.28;;;18.90;83.90;;;;;;4972236;28;20474;-76
2021/07/28 07:19:22;;;;;;;8.30;6.40;;;19.00;83.90;;;;;;4973008;28;20057;-76
2021/07/28 07:21:47;;;;;;;6.53;4.95;;;19.10;83.70;;;;;;4972827;28;20469;-76
2021/07/28 07:24:13;;;;;;;6.57;5.68;;;19.20;83.40;;;;;;4972724;28;20397;-76
2021/07/28 07:26:38;;;;;;;8.80;6.57;;;19.40;83.10;;;;;;4972083;28;20019;-76
2021/07/28 07:29:04;;;;;;;6.57;5.68;;;19.50;82.70;;;;;;4972768;28;20019;-76
2021/07/28 07:31:29;;;;;;;10.52;8.55;;;19.50;82.40;;;;;;4972813;28;20374;-76
2021/07/28 07:33:55;;;;;;;10.15;7.28;;;19.60;82.00;;;;;;4972598;28;20054;-76
2021/07/28 07:36:23;;;;;;;7.20;5.80;;;19.40;82.30;;;;;;4972319;28;20026;-77
2021/07/28 07:38:48;;;;;;;8.38;6.32;;;19.50;81.60;;;;;;4972138;28;20046;-77
2021/07/28 07:41:15;;;;;;;9.10;6.40;;;19.60;81.50;;;;;;4972469;28;20023;-76
2021/07/28 07:43:40;;;;;;;6.55;4.95;;;19.60;81.40;;;;;;4972488;28;20029;-76
2021/07/28 07:46:06;;;;;;;9.57;6.82;;;19.70;81.90;;;;;;4972316;28;20023;-76
2021/07/28 07:48:32;;;;;;;9.68;6.13;;;20.00;81.10;;;;;;4972327;28;20027;-77
2021/07/28 07:50:58;;;;;;;5.85;4.40;;;20.20;79.50;;;;;;4972388;28;20031;-77
2021/07/28 07:53:23;;;;;;;6.78;5.43;;;20.50;79.20;;;;;;4972350;28;20019;-77
2021/07/28 07:55:49;;;;;;;7.35;5.10;;;20.60;77.50;;;;;;4971830;28;20040;-77
2021/07/28 07:58:15;;;;;;;8.63;6.05;;;20.80;77.10;;;;;;4972134;28;20038;-77
2021/07/28 08:00:43;;;;;;;7.55;4.90;;;20.80;76.10;;;;;;4972489;28;20358;-77
2021/07/28 08:03:09;;;;;;;7.15;4.80;;;20.90;76.10;;;;;;4972271;28;20077;-77
2021/07/28 08:05:35;;;;;;;7.05;4.88;;;20.90;75.30;;;;;;4972298;28;20102;-76
2021/07/28 08:08:00;;;;;;;4.47;3.38;;;21.00;74.40;;;;;;4971865;28;20023;-77
2021/07/28 08:10:26;;;;;;;5.50;3.90;;;21.20;74.70;;;;;;4972366;28;20030;-77
2021/07/28 08:12:51;;;;;;;4.85;3.30;;;21.30;74.50;;;;;;4972452;28;20027;-77
2021/07/28 08:15:17;;;;;;;4.82;4.10;;;21.30;74.90;;;;;;4974647;28;20023;-77
2021/07/28 08:17:43;;;;;;;5.47;3.15;;;21.30;74.00;;;;;;4974121;28;20027;-77
2021/07/28 08:20:09;;;;;;;5.88;4.05;;;21.10;73.90;;;;;;4976097;28;20035;-77
2021/07/28 08:22:34;;;;;;;3.80;3.20;;;21.10;73.70;;;;;;4975861;28;20033;-77
2021/07/28 08:25:00;;;;;;;4.72;3.53;;;21.20;73.40;;;;;;4975816;28;20117;-75
2021/07/28 08:27:27;;;;;;;5.55;3.35;;;21.20;73.10;;;;;;4975195;28;20035;-76
2021/07/28 08:29:53;;;;;;;6.30;3.80;;;21.10;72.90;;;;;;4975623;28;20019;-76
2021/07/28 08:32:19;;;;;;;4.18;3.03;;;20.90;72.20;;;;;;4975790;28;20114;-75
2021/07/28 08:34:44;;;;;;;5.80;4.57;;;20.80;72.90;;;;;;4975881;28;20042;-76
2021/07/28 08:37:10;;;;;;;6.32;3.65;;;20.90;72.40;;;;;;4975339;28;20027;-76
2021/07/28 08:39:35;;;;;;;6.75;4.15;;;21.00;72.50;;;;;;4975262;28;20070;-76
2021/07/28 08:42:04;;;;;;;4.78;3.17;;;21.00;72.10;;;;;;4975837;28;20022;-76
2021/07/28 08:44:34;;;;;;;4.55;3.25;;;21.10;72.40;;;;;;4975497;28;20385;-76
2021/07/28 08:47:00;;;;;;;5.35;3.58;;;21.30;72.00;;;;;;4973705;28;20023;-76
2021/07/28 08:49:27;;;;;;;3.22;2.83;;;21.40;71.50;;;;;;4975085;28;20108;-76
2021/07/28 08:51:53;;;;;;;4.80;3.50;;;21.60;71.50;;;;;;4975238;28;20022;-77
2021/07/28 08:54:20;;;;;;;5.10;3.38;;;21.80;70.40;;;;;;4975247;28;20032;-76
2021/07/28 08:56:47;;;;;;;4.07;3.35;;;21.90;70.00;;;;;;4975138;28;20449;-76
2021/07/28 08:59:31;;;;;;;6.22;4.25;;;21.90;68.70;;;;;;4974148;28;20027;-77
2021/07/28 09:01:58;;;;;;;6.25;3.70;;;22.00;68.00;;;;;;4975204;28;20113;-76
2021/07/28 09:04:25;;;;;;;3.55;3.00;;;22.00;67.60;;;;;;4975451;28;20031;-76
2021/07/28 09:06:50;;;;;;;3.78;2.78;;;22.00;67.40;;;;;;4974968;28;20041;-76
2021/07/28 09:09:16;;;;;;;4.22;2.58;;;22.00;67.70;;;;;;4975151;28;20019;-76
2021/07/28 09:12:01;;;;;;;6.05;3.30;;;21.90;67.90;;;;;;4975039;28;20105;-77
2021/07/28 09:14:36;;;;;;;4.70;2.88;;;21.90;67.90;;;;;;4974945;28;20027;-76
2021/07/28 09:17:18;;;;;;;5.10;3.25;;;21.90;68.10;;;;;;4974374;28;20015;-76
2021/07/28 09:19:47;;;;;;;5.60;2.70;;;21.80;68.00;;;;;;4974510;28;20038;-76
2021/07/28 09:22:18;;;;;;;4.63;2.95;;;21.60;67.90;;;;;;4973534;28;20018;-76
2021/07/28 09:24:46;;;;;;;3.80;2.60;;;21.50;67.90;;;;;;4974967;28;20034;-76
2021/07/28 09:27:45;;;;;;;3.72;2.20;;;21.50;68.00;;;;;;4973043;28;20030;-76
2021/07/28 09:30:14;;;;;;;3.22;2.33;;;21.60;68.30;;;;;;4974762;28;20023;-76
2021/07/28 09:33:04;;;;;;;3.13;2.63;;;21.80;67.50;;;;;;4974686;28;20493;-76
2021/07/28 09:35:52;;;;;;;3.17;2.42;;;22.00;66.80;;;;;;4974617;28;20031;-76
2021/07/28 09:38:43;;;;;;;3.92;2.67;;;22.10;65.90;;;;;;4973919;28;20114;-76
2021/07/28 09:41:29;;;;;;;3.23;2.60;;;22.10;65.80;;;;;;4973318;28;20121;-76
2021/07/28 09:43:59;;;;;;;3.97;2.50;;;22.20;66.00;;;;;;4974652;28;20019;-76
2021/07/28 09:46:29;;;;;;;3.13;2.45;;;22.30;65.90;;;;;;4973814;28;20031;-76
2021/07/28 09:48:56;;;;;;;4.45;2.70;;;22.50;65.50;;;;;;4974366;28;20031;-76
2021/07/28 09:51:25;;;;;;;3.80;2.30;;;22.60;64.20;;;;;;4974621;28;20098;-76
2021/07/28 09:53:55;;;;;;;2.72;1.80;;;22.60;64.30;;;;;;4974159;28;20035;-76
2021/07/28 09:56:32;;;;;;;4.88;2.42;;;22.80;64.10;;;;;;4973879;28;20054;-76
2021/07/28 09:58:58;;;;;;;3.33;2.20;;;22.60;61.90;;;;;;4973978;28;20489;-76
2021/07/28 10:01:26;;;;;;;3.80;2.17;;;22.50;62.50;;;;;;4974302;28;20162;-76
2021/07/28 10:03:53;;;;;;;3.55;2.25;;;22.50;62.10;;;;;;4974278;28;20058;-76
2021/07/28 10:06:23;;;;;;;3.25;2.40;;;22.60;62.70;;;;;;4973691;28;20663;-76
2021/07/28 10:08:52;;;;;;;4.53;2.30;;;22.80;62.20;;;;;;4974183;28;20019;-76
2021/07/28 10:11:22;;;;;;;3.45;2.10;;;23.00;61.60;;;;;;4974169;28;20018;-76
2021/07/28 10:13:48;;;;;;;4.60;2.15;;;23.10;61.20;;;;;;4973598;28;20560;-76
2021/07/28 10:16:16;;;;;;;2.95;1.70;;;23.30;60.90;;;;;;4973385;28;20027;-76
2021/07/28 10:18:48;;;;;;;2.50;1.70;;;23.50;61.40;;;;;;4973772;28;20027;-76
2021/07/28 10:21:15;;;;;;;2.15;1.90;;;23.70;61.30;;;;;;4974145;28;20041;-76
2021/07/28 10:23:43;;;;;;;5.53;2.33;;;23.70;60.10;;;;;;4973651;28;20027;-76
2021/07/28 10:26:11;;;;;;;2.03;1.70;;;23.60;59.70;;;;;;4971901;28;20069;-76
2021/07/28 10:28:37;;;;;;;2.42;1.80;;;23.50;59.70;;;;;;4972303;28;20015;-76
2021/07/28 10:31:13;;;;;;;3.60;1.88;;;23.50;60.10;;;;;;4973750;28;20027;-76
2021/07/28 10:33:50;;;;;;;1.70;1.58;;;23.50;59.70;;;;;;4973526;28;20031;-76
2021/07/28 10:36:20;;;;;;;1.90;1.45;;;23.40;60.20;;;;;;4972823;28;20477;-76
2021/07/28 10:38:51;;;;;;;2.22;1.80;;;23.40;60.50;;;;;;4973075;28;20050;-76
2021/07/28 10:41:37;;;;;;;5.10;1.90;;;23.40;60.30;;;;;;4973407;28;20113;-76
2021/07/28 10:44:17;;;;;;;3.90;1.90;;;23.50;60.00;;;;;;4971593;28;20405;-76
2021/07/28 10:46:57;;;;;;;2.00;1.50;;;23.60;60.00;;;;;;4972983;28;20377;-76
2021/07/28 10:49:34;;;;;;;2.97;1.88;;;23.70;60.00;;;;;;4973411;28;20039;-76
2021/07/28 10:52:00;;;;;;;2.10;1.42;;;23.60;59.70;;;;;;4973187;28;20034;-76
2021/07/28 10:54:48;;;;;;;4.00;1.60;;;23.70;59.80;;;;;;4973271;28;20037;-75
2021/07/28 10:57:32;;;;;;;2.53;1.80;;;23.50;59.70;;;;;;4972651;28;20055;-76
2021/07/28 10:59:59;;;;;;;1.33;1.20;;;23.30;59.40;;;;;;4971486;28;20046;-75
2021/07/28 11:02:44;;;;;;;2.42;1.70;;;23.20;60.20;;;;;;4973045;28;20023;-76
2021/07/28 11:05:22;;;;;;;2.35;1.35;;;23.20;60.20;;;;;;4971504;28;20133;-76
2021/07/28 11:08:05;;;;;;;2.78;1.48;;;23.40;60.40;;;;;;4972681;28;20023;-76
2021/07/28 11:10:38;;;;;;;3.13;1.70;;;23.60;59.70;;;;;;4972736;28;20493;-76
2021/07/28 11:13:24;;;;;;;4.00;1.67;;;23.60;58.60;;;;;;4972901;28;20157;-76
2021/07/28 11:16:00;;;;;;;4.38;2.53;;;23.50;58.70;;;;;;4972353;28;20533;-76
2021/07/28 11:18:44;;;;;;;3.30;1.55;;;23.50;57.60;;;;;;4972943;28;20062;-76
2021/07/28 11:21:21;;;;;;;3.20;1.88;;;23.40;58.10;;;;;;4972793;28;20395;-76
2021/07/28 11:24:00;;;;;;;1.40;1.30;;;23.30;58.00;;;;;;4972653;28;20085;-76
2021/07/28 11:26:33;;;;;;;3.42;1.27;;;23.50;58.20;;;;;;4971143;28;20027;-76
2021/07/28 11:29:01;;;;;;;3.30;1.98;;;23.70;58.10;;;;;;4972735;28;20042;-76
2021/07/28 11:31:32;;;;;;;3.35;1.40;;;23.70;57.10;;;;;;4972933;28;20420;-76
2021/07/28 11:34:10;;;;;;;1.63;1.40;;;23.70;57.30;;;;;;4972693;28;20019;-76
2021/07/28 11:36:37;;;;;;;2.40;1.58;;;23.60;57.60;;;;;;4972132;28;20054;-76
2021/07/28 11:39:22;;;;;;;1.58;1.30;;;23.50;57.80;;;;;;4972341;28;20042;-77
2021/07/28 11:41:49;;;;;;;1.73;1.30;;;23.30;58.00;;;;;;4972741;28;20394;-76
2021/07/28 11:44:15;;;;;;;3.63;1.60;;;23.20;57.80;;;;;;4972703;28;20030;-76
2021/07/28 11:46:50;;;;;;;3.60;1.65;;;23.10;57.50;;;;;;4972070;28;20053;-76
2021/07/28 11:49:15;;;;;;;2.40;1.35;;;23.10;57.60;;;;;;4973849;28;20057;-76
2021/07/28 11:51:42;;;;;;;3.03;1.60;;;23.10;58.00;;;;;;4976663;28;20649;-76
2021/07/28 11:54:16;;;;;;;4.10;1.50;;;23.10;57.80;;;;;;4976645;28;20030;-76
2021/07/28 11:56:49;;;;;;;1.80;1.25;;;23.20;57.50;;;;;;4976143;28;20026;-76
2021/07/28 11:59:23;;;;;;;2.20;1.30;;;23.40;57.70;;;;;;4976224;28;20417;-76
2021/07/28 12:01:54;;;;;;;1.90;1.30;;;23.40;57.60;;;;;;4976216;28;20022;-76
2021/07/28 12:04:28;;;;;;;1.85;1.40;;;23.50;57.50;;;;;;4976252;28;20049;-76
2021/07/28 12:06:54;;;;;;;3.33;1.40;;;23.50;57.60;;;;;;4975965;28;20051;-76
2021/07/28 12:09:24;;;;;;;1.80;1.33;;;23.60;57.30;;;;;;4976132;28;20027;-77
2021/07/28 12:12:03;;;;;;;2.50;1.52;;;23.70;57.30;;;;;;4976098;28;20110;-76
2021/07/28 12:14:34;;;;;;;1.50;1.40;;;23.70;57.10;;;;;;4976311;28;20029;-76
2021/07/28 12:17:17;;;;;;;1.48;1.15;;;23.90;56.90;;;;;;4975496;28;20037;-76
2021/07/28 12:20:08;;;;;;;3.55;1.60;;;24.10;56.70;;;;;;4975854;28;20039;-76
2021/07/28 12:22:41;;;;;;;2.88;1.40;;;24.30;56.20;;;;;;4974748;28;20030;-76
2021/07/28 12:25:23;;;;;;;3.03;1.55;;;24.40;55.60;;;;;;4975973;28;20031;-76
2021/07/28 12:27:56;;;;;;;3.88;1.67;;;24.50;55.20;;;;;;4975625;28;20114;-76
2021/07/28 12:30:24;;;;;;;1.67;1.30;;;24.40;54.70;;;;;;4975473;28;20033;-76
2021/07/28 12:33:06;;;;;;;1.63;1.30;;;24.30;55.00;;;;;;4975486;28;20031;-76
2021/07/28 12:35:38;;;;;;;3.83;1.65;;;24.30;55.40;;;;;;4975795;28;20077;-76
2021/07/28 12:38:15;;;;;;;1.73;1.20;;;24.20;55.00;;;;;;4975080;28;20085;-76
2021/07/28 12:41:05;;;;;;;1.25;1.15;;;24.20;55.70;;;;;;4975541;28;20062;-76
2021/07/28 12:43:35;;;;;;;3.17;1.30;;;24.20;55.80;;;;;;4975428;28;20466;-76
2021/07/28 12:46:05;;;;;;;2.83;1.42;;;24.20;55.70;;;;;;4975166;28;20529;-76
2021/07/28 12:48:33;;;;;;;2.95;1.40;;;24.10;55.70;;;;;;4975649;28;20033;-76
2021/07/28 12:51:00;;;;;;;1.85;1.20;;;23.90;56.00;;;;;;4975304;28;20490;-76